Time;durP1;ratioP1;P1;durP2;ratioP2;P2;SDS_P1;SDS_P2;PMS_P1;PMS_P2;Temp;Humidity;BMP_temperature;BMP_pressure;BME280_temperature;BME280_humidity;BME280_pressure;Samples;Min_cycle;Max_cycle;Signal;HPM_P1;HPM_P2
2021/04/13 00:01:13;;;;;;;22.63;4.53;;;13.70;70.00;;;;;;5054171;28;20021;-70
2021/04/13 00:03:48;;;;;;;26.98;4.97;;;13.70;69.40;;;;;;5054515;28;20046;-67
2021/04/13 00:06:26;;;;;;;18.05;4.35;;;13.70;70.00;;;;;;5054184;28;20091;-69
2021/04/13 00:08:58;;;;;;;18.75;4.22;;;13.60;69.80;;;;;;5054001;28;20090;-68
2021/04/13 00:11:24;;;;;;;21.65;4.78;;;13.60;68.60;;;;;;5053676;28;20032;-68
2021/04/13 00:13:53;;;;;;;20.05;4.22;;;13.50;68.50;;;;;;5053893;28;20382;-67
2021/04/13 00:16:23;;;;;;;20.25;4.70;;;13.50;68.30;;;;;;5053971;28;20025;-68
2021/04/13 00:18:51;;;;;;;18.77;4.07;;;13.50;68.00;;;;;;5053979;28;20033;-69
2021/04/13 00:21:18;;;;;;;18.50;5.07;;;13.40;68.00;;;;;;5053438;28;20021;-68
2021/04/13 00:23:45;;;;;;;20.52;4.32;;;13.40;67.80;;;;;;5053498;28;20033;-68
2021/04/13 00:26:20;;;;;;;19.23;4.55;;;13.40;67.20;;;;;;5053702;28;20433;-71
2021/04/13 00:28:47;;;;;;;19.15;4.40;;;13.40;66.80;;;;;;5053901;28;20048;-68
2021/04/13 00:32:06;;;;;;;17.08;4.38;;;13.30;66.50;;;;;;5053547;28;20051;-69
2021/04/13 00:34:36;;;;;;;25.38;4.88;;;13.30;67.50;;;;;;5051114;28;20087;-68
2021/04/13 00:37:26;;;;;;;18.85;4.15;;;13.30;67.60;;;;;;5053625;28;20025;-67
2021/04/13 00:39:54;;;;;;;16.60;3.45;;;13.30;67.50;;;;;;5053574;28;20034;-68
2021/04/13 00:42:28;;;;;;;21.30;4.90;;;13.20;66.30;;;;;;5053700;28;20025;-67
2021/04/13 00:45:00;;;;;;;19.58;4.93;;;13.20;66.30;;;;;;5053324;28;20028;-68
2021/04/13 00:47:31;;;;;;;21.25;4.22;;;13.20;66.50;;;;;;5053684;28;20021;-67
2021/04/13 00:50:04;;;;;;;20.88;4.18;;;13.10;66.30;;;;;;5053307;28;20017;-69
2021/04/13 00:52:40;;;;;;;18.48;4.13;;;13.10;66.30;;;;;;5053337;28;20029;-68
2021/04/13 00:55:11;;;;;;;19.65;3.72;;;13.10;66.40;;;;;;5053418;28;20009;-68
2021/04/13 00:57:45;;;;;;;21.05;5.65;;;13.10;66.40;;;;;;5053640;28;20029;-68
2021/04/13 01:00:32;;;;;;;24.10;4.90;;;13.10;67.10;;;;;;5053375;28;20377;-69
2021/04/13 01:03:01;;;;;;;20.75;4.40;;;13.10;66.50;;;;;;5053407;28;20021;-66
2021/04/13 01:05:40;;;;;;;21.23;4.25;;;13.10;66.50;;;;;;5053121;28;20466;-68
2021/04/13 01:08:30;;;;;;;20.02;4.68;;;13.10;66.20;;;;;;5053011;28;20025;-68
2021/04/13 01:10:58;;;;;;;19.13;4.30;;;13.10;66.20;;;;;;5053076;28;20036;-67
2021/04/13 01:13:40;;;;;;;17.40;4.68;;;13.10;65.60;;;;;;5053178;28;20017;-68
2021/04/13 01:16:06;;;;;;;16.40;4.57;;;13.00;65.70;;;;;;5053243;28;20036;-69
2021/04/13 01:18:37;;;;;;;18.08;4.35;;;13.00;66.20;;;;;;5053160;28;20032;-69
2021/04/13 01:21:34;;;;;;;21.05;4.20;;;13.00;65.40;;;;;;5052903;28;20033;-68
2021/04/13 01:24:11;;;;;;;21.38;4.82;;;13.00;65.40;;;;;;5053034;28;20128;-69
2021/04/13 01:26:45;;;;;;;23.50;4.13;;;13.00;65.30;;;;;;5052944;28;20029;-69
2021/04/13 01:29:14;;;;;;;15.30;3.88;;;13.00;65.10;;;;;;5053130;28;20025;-69
2021/04/13 01:34:51;;;;;;;18.90;4.32;;;13.00;65.20;;;;;;5053078;28;21245;-68
2021/04/13 01:42:25;;;;;;;21.30;4.47;;;13.10;65.00;;;;;;5056732;28;20057;-70
2021/04/13 01:45:13;;;;;;;26.55;4.35;;;13.10;65.00;;;;;;5056786;28;20078;-68
2021/04/13 01:47:40;;;;;;;20.15;4.00;;;13.00;64.80;;;;;;5056435;28;20048;-70
2021/04/13 01:50:13;;;;;;;20.88;4.00;;;13.00;64.80;;;;;;5056804;28;20119;-69
2021/04/13 01:52:42;;;;;;;21.40;4.90;;;12.90;65.10;;;;;;5056676;28;20032;-72
2021/04/13 01:55:24;;;;;;;21.13;4.55;;;12.90;64.90;;;;;;5056696;28;20036;-71
2021/04/13 01:58:05;;;;;;;22.27;4.97;;;12.90;66.30;;;;;;5056436;28;20028;-68
2021/04/13 02:00:52;;;;;;;19.42;4.22;;;12.90;66.20;;;;;;5056637;28;20048;-70
2021/04/13 02:03:27;;;;;;;17.33;4.95;;;12.90;65.10;;;;;;5046390;28;20033;-70
2021/04/13 02:06:00;;;;;;;16.40;3.30;;;12.90;64.90;;;;;;5056584;28;20028;-68
2021/04/13 02:08:32;;;;;;;14.80;4.25;;;12.90;64.70;;;;;;5056134;28;20033;-70
2021/04/13 02:11:04;;;;;;;19.48;4.45;;;12.90;64.80;;;;;;5054853;28;20116;-70
2021/04/13 02:13:39;;;;;;;19.15;4.20;;;12.90;65.90;;;;;;5056101;28;20170;-69
2021/04/13 02:16:17;;;;;;;19.80;3.72;;;12.90;65.50;;;;;;5056297;28;20017;-69
2021/04/13 02:18:48;;;;;;;13.82;3.53;;;12.90;64.20;;;;;;5056306;28;20024;-70
2021/04/13 02:21:28;;;;;;;22.15;3.88;;;12.90;64.20;;;;;;5055872;28;20017;-70
2021/04/13 02:23:59;;;;;;;17.33;4.05;;;12.90;64.10;;;;;;5056278;28;20370;-71
2021/04/13 02:26:25;;;;;;;20.00;4.68;;;12.90;64.20;;;;;;5056102;28;20035;-70
2021/04/13 02:28:52;;;;;;;17.13;3.67;;;12.90;64.60;;;;;;5054902;28;20036;-70
2021/04/13 02:31:47;;;;;;;17.45;3.72;;;12.90;64.50;;;;;;5055912;28;20517;-68
2021/04/13 02:34:27;;;;;;;21.17;3.95;;;12.90;64.30;;;;;;5056061;28;20100;-72
2021/04/13 02:36:56;;;;;;;19.85;3.97;;;12.90;64.60;;;;;;5056320;28;20154;-71
2021/04/13 02:39:26;;;;;;;24.85;5.18;;;12.90;64.10;;;;;;5056128;28;20113;-72
2021/04/13 02:42:01;;;;;;;19.92;4.07;;;12.90;64.20;;;;;;5055806;28;20382;-70
2021/04/13 02:44:27;;;;;;;19.88;4.15;;;13.00;64.20;;;;;;5056054;28;20071;-71
2021/04/13 02:46:58;;;;;;;19.73;4.18;;;13.00;64.40;;;;;;5055523;28;20013;-71
2021/04/13 02:49:25;;;;;;;19.55;4.20;;;13.00;64.10;;;;;;5055993;28;20096;-68
2021/04/13 02:51:58;;;;;;;16.27;3.63;;;13.00;64.00;;;;;;5055610;28;20037;-69
2021/04/13 02:54:37;;;;;;;25.10;4.18;;;13.00;64.90;;;;;;5055721;28;20031;-72
2021/04/13 02:57:07;;;;;;;22.90;4.00;;;13.00;64.80;;;;;;5055318;28;20032;-72
2021/04/13 02:59:37;;;;;;;21.08;3.78;;;13.00;64.50;;;;;;5055542;28;20347;-68
2021/04/13 03:02:06;;;;;;;22.48;4.07;;;12.90;64.40;;;;;;5055331;28;20017;-68
2021/04/13 03:04:42;;;;;;;24.95;5.47;;;12.90;64.70;;;;;;5055415;28;20025;-70
2021/04/13 03:07:12;;;;;;;20.38;5.18;;;13.00;65.50;;;;;;5055312;28;20056;-71
2021/04/13 03:09:39;;;;;;;20.63;4.50;;;13.00;64.60;;;;;;5055198;28;20017;-71
2021/04/13 03:12:08;;;;;;;22.30;4.68;;;13.00;64.80;;;;;;5055211;28;20033;-69
2021/04/13 03:14:39;;;;;;;19.60;4.30;;;13.00;65.10;;;;;;5054982;28;20017;-68
2021/04/13 03:17:10;;;;;;;24.52;4.65;;;13.00;64.70;;;;;;5054934;28;20116;-69
2021/04/13 03:19:38;;;;;;;20.48;5.38;;;13.00;65.10;;;;;;5055067;28;20021;-70
2021/04/13 03:22:06;;;;;;;19.25;4.20;;;12.90;65.10;;;;;;5054604;28;20041;-71
2021/04/13 03:24:38;;;;;;;29.13;4.78;;;12.90;65.20;;;;;;5054982;28;20474;-71
2021/04/13 03:27:12;;;;;;;20.35;4.13;;;12.90;65.30;;;;;;5053750;28;20021;-71
2021/04/13 03:29:56;;;;;;;;;;;12.90;65.90;;;;;;5055088;28;20036;-70
2021/04/13 03:32:25;;;;;;;18.88;4.22;;;12.90;65.90;;;;;;5054493;28;19944;-70
2021/04/13 03:34:50;;;;;;;24.80;4.47;;;12.80;65.40;;;;;;5054621;28;20017;-70
2021/04/13 03:37:17;;;;;;;22.30;4.20;;;12.80;65.50;;;;;;5054816;28;20028;-71
2021/04/13 03:39:45;;;;;;;22.20;4.88;;;12.80;65.80;;;;;;5054684;28;20108;-69
2021/04/13 03:42:25;;;;;;;28.35;5.80;;;12.80;66.00;;;;;;5054335;28;20036;-70
2021/04/13 03:44:51;;;;;;;27.30;6.30;;;12.80;66.70;;;;;;5054567;28;20021;-71
2021/04/13 03:47:29;;;;;;;23.58;5.20;;;12.80;66.30;;;;;;5053056;28;20054;-72
2021/04/13 03:49:57;;;;;;;20.73;4.65;;;12.80;66.90;;;;;;5054215;28;20021;-71
2021/04/13 03:52:30;;;;;;;19.55;4.93;;;12.70;66.30;;;;;;5054336;28;20051;-72
2021/04/13 03:54:57;;;;;;;26.88;5.20;;;12.80;66.80;;;;;;5054344;28;20071;-70
2021/04/13 03:57:35;;;;;;;27.13;5.65;;;12.70;66.30;;;;;;5053847;28;20040;-69
2021/04/13 04:00:06;;;;;;;23.33;4.78;;;12.70;67.00;;;;;;5054419;28;20013;-71
2021/04/13 04:02:33;;;;;;;25.38;5.05;;;12.70;66.60;;;;;;5054163;28;20017;-70
2021/04/13 04:05:10;;;;;;;22.77;5.18;;;12.70;66.50;;;;;;5054045;28;20376;-71
2021/04/13 04:07:40;;;;;;;16.23;4.00;;;12.60;66.70;;;;;;5052935;28;20397;-71
2021/04/13 04:10:33;;;;;;;27.30;5.28;;;12.60;66.40;;;;;;5053719;28;20596;-70
2021/04/13 04:13:29;;;;;;;28.63;5.57;;;12.60;67.40;;;;;;5054107;28;20112;-68
2021/04/13 04:16:19;;;;;;;21.48;4.65;;;12.60;66.60;;;;;;5053968;28;20021;-69
2021/04/13 04:18:49;;;;;;;17.35;4.57;;;12.60;67.20;;;;;;5054190;28;20028;-73
2021/04/13 04:21:32;;;;;;;18.08;4.65;;;12.60;66.40;;;;;;5053570;28;20025;-68
2021/04/13 04:24:03;;;;;;;21.90;4.93;;;12.60;66.70;;;;;;5053996;28;20393;-68
2021/04/13 04:26:39;;;;;;;23.42;5.45;;;12.60;66.70;;;;;;5054057;28;20020;-69
2021/04/13 04:29:33;;;;;;;22.52;4.65;;;12.60;66.90;;;;;;5052651;28;20474;-69
2021/04/13 04:32:31;;;;;;;21.95;5.38;;;12.60;67.20;;;;;;5053395;28;20064;-73
2021/04/13 04:35:00;;;;;;;27.67;5.55;;;12.70;67.20;;;;;;5020102;28;20036;-70
2021/04/13 04:37:48;;;;;;;24.83;4.80;;;12.70;67.10;;;;;;5053640;28;20084;-70
2021/04/13 04:40:16;;;;;;;27.63;5.38;;;12.70;67.50;;;;;;5053069;28;20112;-70
2021/04/13 04:42:47;;;;;;;23.90;5.43;;;12.60;67.80;;;;;;5053846;28;20017;-68
2021/04/13 04:45:13;;;;;;;27.77;5.57;;;12.60;68.30;;;;;;5053484;28;20056;-68
2021/04/13 04:47:39;;;;;;;23.65;5.03;;;12.70;68.40;;;;;;5053236;28;20094;-69
2021/04/13 04:50:07;;;;;;;28.75;5.97;;;12.60;68.10;;;;;;5053134;28;20024;-71
2021/04/13 04:52:33;;;;;;;23.17;5.70;;;12.70;68.60;;;;;;5053166;28;20474;-70
2021/04/13 04:54:58;;;;;;;21.83;5.05;;;12.60;68.30;;;;;;5053308;28;20023;-68
2021/04/13 04:57:24;;;;;;;24.67;5.40;;;12.60;68.70;;;;;;5053150;28;20052;-71
2021/04/13 04:59:50;;;;;;;24.25;4.80;;;12.70;68.90;;;;;;5053416;28;20028;-71
2021/04/13 05:02:15;;;;;;;25.85;5.45;;;12.70;68.80;;;;;;5053374;28;20032;-70
2021/04/13 05:04:41;;;;;;;24.63;5.90;;;12.70;68.80;;;;;;5053326;28;20021;-68
2021/04/13 05:07:07;;;;;;;27.33;5.60;;;12.70;68.90;;;;;;5053414;28;20025;-70
2021/04/13 05:09:33;;;;;;;25.75;4.82;;;12.70;68.90;;;;;;5053178;28;20036;-69
2021/04/13 05:11:59;;;;;;;27.60;5.45;;;12.80;69.00;;;;;;5051654;28;20516;-69
2021/04/13 05:14:24;;;;;;;24.90;5.40;;;12.80;69.00;;;;;;5053293;28;20090;-69
2021/04/13 05:16:52;;;;;;;24.75;5.57;;;12.80;69.10;;;;;;5053146;28;20422;-68
2021/04/13 05:19:18;;;;;;;24.77;5.50;;;12.70;69.10;;;;;;5053059;28;20155;-68
2021/04/13 05:21:43;;;;;;;24.75;5.45;;;12.80;69.10;;;;;;5053482;28;20124;-69
2021/04/13 05:24:10;;;;;;;23.38;5.45;;;12.70;69.10;;;;;;5052911;28;20040;-68
2021/04/13 05:26:36;;;;;;;29.98;6.60;;;12.80;69.40;;;;;;5052803;28;20474;-68
2021/04/13 05:29:04;;;;;;;23.60;6.38;;;12.80;69.30;;;;;;5051648;28;20051;-69
2021/04/13 05:31:30;;;;;;;25.58;5.00;;;12.80;69.10;;;;;;5052792;28;20076;-71
2021/04/13 05:33:55;;;;;;;27.38;5.63;;;12.90;69.20;;;;;;5053043;28;20048;-67
2021/04/13 05:36:21;;;;;;;24.88;5.68;;;12.90;69.00;;;;;;5052968;28;20061;-69
2021/04/13 05:38:49;;;;;;;22.77;5.50;;;13.00;69.20;;;;;;5052875;28;20048;-70
2021/04/13 05:41:15;;;;;;;24.60;5.63;;;13.00;68.70;;;;;;5052725;28;20036;-68
2021/04/13 05:43:43;;;;;;;25.63;5.88;;;13.10;68.90;;;;;;5052772;28;20017;-68
2021/04/13 05:46:14;;;;;;;24.80;5.90;;;13.10;68.60;;;;;;5052751;28;20112;-68
2021/04/13 05:48:40;;;;;;;26.30;5.63;;;13.10;68.90;;;;;;5052892;28;20104;-70
2021/04/13 05:51:05;;;;;;;31.27;5.60;;;13.20;68.90;;;;;;5052463;28;20442;-71
2021/04/13 05:53:31;;;;;;;20.90;5.30;;;13.30;68.80;;;;;;5052734;28;20070;-71
2021/04/13 05:55:57;;;;;;;20.90;5.13;;;13.50;68.70;;;;;;5052516;28;20044;-69
2021/04/13 05:58:33;;;;;;;27.52;5.85;;;13.70;67.90;;;;;;5051018;28;20039;-68
2021/04/13 06:01:05;;;;;;;25.05;6.05;;;13.90;67.40;;;;;;5052369;28;20051;-68
2021/04/13 06:03:33;;;;;;;24.25;5.30;;;14.20;66.90;;;;;;5052435;28;20021;-69
2021/04/13 06:05:59;;;;;;;21.60;5.70;;;14.40;66.30;;;;;;5051437;28;20025;-67
2021/04/13 06:08:25;;;;;;;19.25;5.35;;;14.60;66.00;;;;;;5052454;28;20071;-69
2021/04/13 06:10:58;;;;;;;26.17;4.55;;;14.80;65.70;;;;;;5052132;28;20471;-69
2021/04/13 06:13:25;;;;;;;21.27;5.32;;;14.90;65.10;;;;;;5052329;28;20024;-68
2021/04/13 06:15:54;;;;;;;29.65;5.03;;;14.90;65.10;;;;;;5052446;28;20021;-68
2021/04/13 06:18:20;;;;;;;21.45;5.30;;;14.90;64.90;;;;;;5051946;28;20025;-67
2021/04/13 06:20:46;;;;;;;19.60;5.60;;;14.90;64.90;;;;;;5052540;28;20029;-70
2021/04/13 06:23:12;;;;;;;25.52;5.28;;;14.90;65.10;;;;;;5055971;28;20095;-68
2021/04/13 06:25:37;;;;;;;22.33;5.93;;;14.90;65.30;;;;;;5054468;28;20090;-69
2021/04/13 06:28:03;;;;;;;23.08;5.72;;;14.80;65.80;;;;;;5055678;28;20029;-71
2021/04/13 06:30:32;;;;;;;26.30;5.55;;;14.90;65.20;;;;;;5055551;28;20071;-69
2021/04/13 06:32:58;;;;;;;21.77;5.07;;;15.10;65.10;;;;;;5055312;28;20100;-70
2021/04/13 06:35:25;;;;;;;23.63;4.88;;;15.30;64.70;;;;;;5055462;28;20112;-69
2021/04/13 06:37:53;;;;;;;21.13;4.95;;;15.40;64.40;;;;;;5055811;28;20083;-67
2021/04/13 06:40:33;;;;;;;17.05;5.07;;;15.60;65.00;;;;;;5055329;28;20031;-69
2021/04/13 06:43:14;;;;;;;27.08;5.68;;;15.70;64.10;;;;;;5055633;28;20033;-68
2021/04/13 06:46:14;;;;;;;31.75;6.72;;;15.90;63.60;;;;;;5055353;28;20074;-71
2021/04/13 06:48:50;;;;;;;23.73;5.07;;;16.00;63.40;;;;;;5055291;28;20040;-70
2021/04/13 06:51:27;;;;;;;19.83;4.78;;;16.10;62.80;;;;;;5054963;28;20033;-68
2021/04/13 06:54:05;;;;;;;18.75;5.75;;;16.20;62.50;;;;;;5055076;28;20028;-68
2021/04/13 06:57:10;;;;;;;28.35;4.82;;;16.30;62.60;;;;;;5055814;28;20474;-69
2021/04/13 06:59:53;;;;;;;24.95;5.25;;;16.40;61.50;;;;;;5056521;28;20106;-69
2021/04/13 07:02:33;;;;;;;23.20;4.70;;;16.30;61.30;;;;;;5054531;28;20508;-69
2021/04/13 07:05:12;;;;;;;22.67;5.07;;;16.40;61.30;;;;;;5054850;28;20263;-69
2021/04/13 07:07:54;;;;;;;23.85;4.72;;;16.40;60.90;;;;;;5055095;28;20039;-69
2021/04/13 07:10:25;;;;;;;20.23;4.22;;;16.40;60.90;;;;;;5054718;28;20028;-68
2021/04/13 07:13:21;;;;;;;27.90;4.82;;;16.30;60.10;;;;;;5054845;28;20036;-68
2021/04/13 07:16:03;;;;;;;47.33;6.57;;;16.10;60.30;;;;;;5054893;28;20040;-68
2021/04/13 07:18:49;;;;;;;23.50;5.40;;;16.10;60.20;;;;;;5054671;28;20053;-68
2021/04/13 07:21:28;;;;;;;19.63;4.43;;;16.10;59.70;;;;;;5054520;28;20033;-69
2021/04/13 07:23:53;;;;;;;19.38;4.95;;;16.00;59.20;;;;;;5054697;28;20536;-68
2021/04/13 07:26:43;;;;;;;18.45;4.05;;;16.00;59.30;;;;;;5054165;28;20025;-69
2021/04/13 07:29:11;;;;;;;19.27;4.40;;;16.10;59.50;;;;;;5038156;28;20032;-70
2021/04/13 07:31:53;;;;;;;14.43;4.60;;;16.20;58.90;;;;;;5053970;28;20045;-70
2021/04/13 07:34:20;;;;;;;23.35;4.72;;;16.30;58.10;;;;;;5052188;28;20021;-69
2021/04/13 07:37:10;;;;;;;20.30;3.78;;;16.40;57.90;;;;;;5054243;28;20025;-68
2021/04/13 07:39:39;;;;;;;22.08;4.00;;;16.50;57.30;;;;;;5023848;28;20029;-69
2021/04/13 07:42:10;;;;;;;17.17;4.43;;;16.60;56.60;;;;;;5054340;28;20024;-69
2021/04/13 07:45:01;;;;;;;16.17;3.85;;;16.60;56.20;;;;;;5052918;28;20077;-69
2021/04/13 07:48:06;;;;;;;24.15;4.93;;;16.60;55.90;;;;;;5054116;28;20478;-70
2021/04/13 07:51:00;;;;;;;18.38;4.13;;;16.80;55.80;;;;;;5050540;28;20126;-68
2021/04/13 07:53:56;;;;;;;18.88;4.05;;;16.80;55.60;;;;;;5052856;28;20036;-69
2021/04/13 07:56:26;;;;;;;18.85;4.60;;;16.70;55.10;;;;;;5054114;28;20476;-68
2021/04/13 07:59:20;;;;;;;21.45;5.15;;;16.50;55.30;;;;;;5053335;28;20531;-69
2021/04/13 08:01:47;;;;;;;18.08;4.25;;;16.50;55.90;;;;;;5053874;28;20021;-69
2021/04/13 08:04:18;;;;;;;20.17;4.22;;;16.70;55.50;;;;;;5053213;28;20367;-69
2021/04/13 08:06:54;;;;;;;16.52;3.80;;;16.80;55.10;;;;;;5053528;28;20446;-70
2021/04/13 08:09:23;;;;;;;18.02;4.05;;;16.90;55.20;;;;;;5053701;28;20033;-68
2021/04/13 08:12:12;;;;;;;17.92;3.70;;;17.00;54.30;;;;;;5053188;28;20452;-68
2021/04/13 08:14:41;;;;;;;15.52;4.03;;;17.00;54.60;;;;;;5053739;28;20021;-71
2021/04/13 08:17:20;;;;;;;18.17;4.63;;;17.00;53.60;;;;;;5052398;28;20040;-68
2021/04/13 08:20:00;;;;;;;17.73;4.65;;;17.00;53.60;;;;;;5053539;28;20021;-68
2021/04/13 08:22:28;;;;;;;16.95;3.42;;;16.90;52.60;;;;;;5053036;28;20139;-70
2021/04/13 08:24:57;;;;;;;21.85;4.00;;;16.90;52.90;;;;;;5052059;28;20025;-70
2021/04/13 08:27:25;;;;;;;17.45;3.78;;;16.90;52.80;;;;;;5052998;28;20025;-69
2021/04/13 08:29:54;;;;;;;21.80;4.18;;;16.90;53.10;;;;;;5053444;28;20113;-68
2021/04/13 08:32:50;;;;;;;14.95;3.75;;;16.90;52.80;;;;;;5052982;28;20064;-70
2021/04/13 08:35:31;;;;;;;16.13;3.92;;;16.80;52.90;;;;;;5053481;28;20025;-68
2021/04/13 08:38:31;;;;;;;20.25;4.82;;;16.80;53.00;;;;;;5053155;28;20446;-68
2021/04/13 08:41:02;;;;;;;18.13;4.22;;;16.80;53.70;;;;;;5048633;28;20414;-71
2021/04/13 08:43:40;;;;;;;14.80;4.15;;;16.70;53.30;;;;;;5052954;28;20067;-71
2021/04/13 08:46:35;;;;;;;19.10;4.90;;;16.70;53.40;;;;;;5051888;28;20111;-69
2021/04/13 08:49:32;;;;;;;19.33;3.50;;;16.60;52.80;;;;;;5053057;28;20040;-69
2021/04/13 08:52:15;;;;;;;19.48;3.15;;;16.70;53.40;;;;;;5052696;28;20047;-69
2021/04/13 08:54:47;;;;;;;13.07;3.13;;;16.60;52.50;;;;;;5052828;28;20152;-69
2021/04/13 08:57:19;;;;;;;15.95;3.70;;;16.60;52.50;;;;;;5053093;28;20057;-68
2021/04/13 08:59:56;;;;;;;15.38;3.83;;;16.60;52.30;;;;;;5053070;28;20025;-69
2021/04/13 09:02:33;;;;;;;15.07;3.50;;;16.70;52.00;;;;;;5052891;28;20462;-71
2021/04/13 09:05:13;;;;;;;18.45;3.65;;;16.80;51.50;;;;;;5052722;28;20029;-70
2021/04/13 09:07:49;;;;;;;12.40;3.38;;;17.00;51.60;;;;;;5052892;28;20075;-68
2021/04/13 09:10:16;;;;;;;18.75;3.53;;;17.10;51.40;;;;;;5052679;28;20017;-69
2021/04/13 09:12:50;;;;;;;14.45;3.65;;;17.20;51.00;;;;;;5053022;28;20036;-69
2021/04/13 09:15:26;;;;;;;10.73;2.63;;;17.20;51.40;;;;;;5052939;28;20025;-68
2021/04/13 09:18:12;;;;;;;14.05;3.15;;;17.10;51.20;;;;;;5052928;28;20017;-69
2021/04/13 09:20:50;;;;;;;14.57;3.42;;;17.00;51.30;;;;;;5052668;28;20471;-69
2021/04/13 09:23:27;;;;;;;14.45;3.38;;;17.00;50.90;;;;;;5052515;28;20040;-70
2021/04/13 09:26:02;;;;;;;14.55;3.42;;;16.90;51.00;;;;;;5052340;28;20028;-70
2021/04/13 09:28:47;;;;;;;14.88;3.38;;;16.90;50.70;;;;;;5052514;28;20048;-67
2021/04/13 09:31:16;;;;;;;17.10;3.17;;;16.90;50.30;;;;;;5052455;28;20060;-70
2021/04/13 09:33:44;;;;;;;14.68;3.40;;;17.00;50.20;;;;;;5052794;28;20013;-70
2021/04/13 09:36:34;;;;;;;13.60;3.35;;;16.90;49.70;;;;;;5052263;28;20060;-68
2021/04/13 09:39:22;;;;;;;12.00;3.13;;;16.80;49.40;;;;;;5052805;28;20040;-72
2021/04/13 09:42:10;;;;;;;11.18;3.22;;;16.90;49.50;;;;;;5021822;28;20029;-68
2021/04/13 09:44:52;;;;;;;11.48;3.38;;;17.00;49.50;;;;;;5052320;28;20377;-69
2021/04/13 09:48:02;;;;;;;12.02;2.95;;;17.10;49.50;;;;;;5052878;28;20025;-69
2021/04/13 09:50:46;;;;;;;16.33;3.25;;;17.30;49.60;;;;;;5052319;28;20037;-70
2021/04/13 09:53:35;;;;;;;15.40;3.78;;;17.30;49.10;;;;;;5052320;28;20074;-70
2021/04/13 09:56:31;;;;;;;14.57;2.88;;;17.30;49.20;;;;;;5045518;28;20485;-68
2021/04/13 09:59:07;;;;;;;14.02;3.00;;;17.40;49.10;;;;;;5056472;28;20036;-68
2021/04/13 10:02:08;;;;;;;14.57;2.85;;;17.30;49.30;;;;;;5056135;28;20027;-70
2021/04/13 10:04:48;;;;;;;11.35;2.40;;;17.40;48.60;;;;;;5055714;28;20465;-71
2021/04/13 10:07:23;;;;;;;11.27;2.50;;;17.30;48.60;;;;;;5057030;28;20031;-70
2021/04/13 10:09:50;;;;;;;10.05;2.33;;;17.20;47.80;;;;;;5055522;28;20029;-68
2021/04/13 10:12:34;;;;;;;9.60;2.97;;;17.20;48.00;;;;;;5055469;28;20505;-69
2021/04/13 10:15:27;;;;;;;9.95;2.42;;;17.30;47.40;;;;;;5056537;28;20033;-70
2021/04/13 10:18:23;;;;;;;15.30;2.63;;;17.30;47.30;;;;;;5056085;28;20159;-69
2021/04/13 10:21:04;;;;;;;14.68;2.95;;;17.40;47.60;;;;;;5055837;28;20028;-69
2021/04/13 10:24:08;;;;;;;14.93;3.08;;;17.50;48.30;;;;;;5055918;28;20056;-69
2021/04/13 10:26:33;;;;;;;8.77;2.88;;;17.60;48.40;;;;;;5055906;28;20103;-69
2021/04/13 10:29:24;;;;;;;12.25;3.45;;;17.60;48.90;;;;;;5055763;28;20076;-70
2021/04/13 10:32:06;;;;;;;12.82;3.03;;;17.80;48.50;;;;;;5055681;28;20381;-70
2021/04/13 10:34:51;;;;;;;18.83;3.75;;;17.90;48.70;;;;;;5055600;28;20378;-69
2021/04/13 10:37:31;;;;;;;12.80;2.90;;;18.00;48.80;;;;;;5055694;28;20021;-69
2021/04/13 10:40:34;;;;;;;13.85;3.13;;;18.00;49.10;;;;;;5055708;28;20017;-70
2021/04/13 10:43:20;;;;;;;11.50;3.13;;;17.90;48.90;;;;;;5056079;28;20484;-68
2021/04/13 10:46:24;;;;;;;12.43;3.33;;;17.90;49.40;;;;;;5055638;28;20021;-69
2021/04/13 10:49:36;;;;;;;12.82;3.47;;;18.10;49.30;;;;;;5055617;28;20025;-69
2021/04/13 10:52:39;;;;;;;9.82;2.72;;;18.20;49.00;;;;;;5055192;28;20043;-71
2021/04/13 10:55:35;;;;;;;12.63;3.03;;;18.20;48.50;;;;;;5055527;28;20078;-70
2021/04/13 10:58:44;;;;;;;11.73;2.90;;;18.30;48.10;;;;;;5034347;28;20037;-69
2021/04/13 11:01:34;;;;;;;15.07;3.40;;;18.10;48.10;;;;;;5055482;28;20485;-68
2021/04/13 11:04:19;;;;;;;17.55;2.92;;;18.00;48.60;;;;;;5055517;28;20025;-68
2021/04/13 11:07:26;;;;;;;18.45;3.72;;;18.00;49.30;;;;;;5055430;28;20029;-69
2021/04/13 11:09:52;;;;;;;11.65;2.95;;;17.90;49.40;;;;;;5055279;28;20021;-69
2021/04/13 11:12:55;;;;;;;14.63;3.30;;;17.80;50.40;;;;;;5055023;28;20025;-69
2021/04/13 11:15:38;;;;;;;10.90;3.22;;;17.70;50.00;;;;;;5055127;28;20022;-68
2021/04/13 11:18:31;;;;;;;13.63;3.00;;;17.50;50.10;;;;;;5053755;28;20025;-68
2021/04/13 11:21:23;;;;;;;15.02;3.22;;;17.40;50.10;;;;;;5053452;28;20039;-69
2021/04/13 11:24:00;;;;;;;13.18;2.97;;;17.40;50.50;;;;;;5054665;28;20049;-69
2021/04/13 11:26:49;;;;;;;12.88;3.88;;;17.40;50.60;;;;;;5054491;28;20082;-69
2021/04/13 11:29:43;;;;;;;13.52;4.00;;;17.50;50.70;;;;;;5054642;28;20422;-68
2021/04/13 11:32:46;;;;;;;15.40;3.15;;;17.60;50.60;;;;;;5054785;28;20513;-70
2021/04/13 11:35:28;;;;;;;12.52;3.03;;;17.50;50.20;;;;;;5055168;28;20033;-70
2021/04/13 11:38:09;;;;;;;10.55;2.85;;;17.50;50.30;;;;;;5054798;28;20056;-70
2021/04/13 11:40:38;;;;;;;8.85;2.83;;;17.60;50.70;;;;;;5053220;28;20044;-69
2021/04/13 11:43:08;;;;;;;14.35;2.78;;;17.60;50.50;;;;;;5054661;28;20036;-70
2021/04/13 11:45:37;;;;;;;12.55;2.90;;;17.60;50.50;;;;;;5054621;28;20055;-69
2021/04/13 11:48:12;;;;;;;15.23;2.75;;;17.70;50.70;;;;;;5054422;28;20013;-69
2021/04/13 11:50:46;;;;;;;11.55;2.63;;;17.70;50.20;;;;;;5054423;28;20037;-70
2021/04/13 11:53:13;;;;;;;;;;;17.80;50.10;;;;;;5054620;28;20036;-69
2021/04/13 11:55:50;;;;;;;11.93;2.88;;;17.80;49.20;;;;;;5053651;28;20309;-68
2021/04/13 11:58:23;;;;;;;9.93;2.60;;;18.00;49.60;;;;;;5053778;28;20035;-68
2021/04/13 12:01:09;;;;;;;11.38;3.03;;;18.10;50.10;;;;;;5054101;28;20054;-69
2021/04/13 12:03:37;;;;;;;11.90;2.55;;;18.20;49.20;;;;;;5053895;28;20021;-69
2021/04/13 12:06:12;;;;;;;16.92;2.58;;;18.30;49.10;;;;;;5053920;28;20035;-69
2021/04/13 12:08:40;;;;;;;14.90;2.10;;;18.30;48.80;;;;;;5053849;28;20466;-69
2021/04/13 12:11:13;;;;;;;12.20;2.75;;;18.30;48.70;;;;;;5053662;28;20120;-69
2021/04/13 12:13:51;;;;;;;14.18;2.75;;;18.20;49.20;;;;;;5053695;28;20017;-68
2021/04/13 12:16:41;;;;;;;10.90;2.50;;;18.30;49.50;;;;;;5053556;28;20033;-70
2021/04/13 12:19:18;;;;;;;11.40;2.58;;;18.30;49.70;;;;;;5053040;28;20489;-69
2021/04/13 12:21:48;;;;;;;12.05;2.70;;;18.20;50.40;;;;;;5053723;28;20454;-69
2021/04/13 12:24:39;;;;;;;11.60;2.40;;;18.00;49.70;;;;;;5053589;28;20033;-68
2021/04/13 12:27:26;;;;;;;20.70;2.75;;;17.90;49.50;;;;;;5052204;28;20382;-69
2021/04/13 12:30:14;;;;;;;8.65;2.55;;;18.00;49.80;;;;;;5053772;28;20439;-70
2021/04/13 12:32:43;;;;;;;10.98;2.45;;;18.20;49.50;;;;;;5012981;28;20049;-69
2021/04/13 12:35:10;;;;;;;7.43;2.55;;;18.30;49.40;;;;;;5053981;28;20029;-69
2021/04/13 12:37:40;;;;;;;12.93;3.00;;;18.40;49.40;;;;;;5053993;28;20071;-73
2021/04/13 12:40:21;;;;;;;7.55;2.40;;;18.40;49.80;;;;;;5052384;28;20029;-70
2021/04/13 12:43:03;;;;;;;14.52;2.78;;;18.50;49.90;;;;;;5053982;28;20041;-71
2021/04/13 12:45:51;;;;;;;15.23;3.47;;;18.50;50.00;;;;;;5052253;28;20033;-70
2021/04/13 12:48:28;;;;;;;10.82;2.63;;;18.40;50.10;;;;;;5053145;28;20508;-68
2021/04/13 12:51:00;;;;;;;7.53;2.92;;;18.20;50.30;;;;;;5053176;28;20025;-69
2021/04/13 12:53:26;;;;;;;10.60;2.50;;;18.10;50.70;;;;;;5053528;28;20391;-69
2021/04/13 12:56:02;;;;;;;12.38;3.72;;;18.00;50.50;;;;;;5053302;28;20024;-69
2021/04/13 12:58:31;;;;;;;13.48;3.25;;;17.90;50.60;;;;;;5053928;28;20036;-71
2021/04/13 13:00:57;;;;;;;11.13;3.10;;;18.00;50.80;;;;;;5053179;28;20029;-70
2021/04/13 13:03:32;;;;;;;14.75;3.17;;;17.90;51.00;;;;;;5053287;28;20467;-70
2021/04/13 13:05:57;;;;;;;11.68;2.83;;;17.80;51.50;;;;;;5053226;28;20083;-69
2021/04/13 13:08:29;;;;;;;9.85;2.40;;;17.80;51.80;;;;;;5052980;28;20032;-69
2021/04/13 13:11:06;;;;;;;10.15;3.17;;;17.60;52.10;;;;;;5052921;28;20032;-68
2021/04/13 13:13:35;;;;;;;11.75;2.90;;;17.40;53.10;;;;;;5053036;28;20025;-67
2021/04/13 13:16:15;;;;;;;16.75;2.80;;;16.90;54.30;;;;;;5053383;28;20521;-69
2021/04/13 13:18:46;;;;;;;14.02;3.22;;;16.50;56.30;;;;;;5053124;28;20437;-70
2021/04/13 13:21:15;;;;;;;10.70;2.78;;;16.30;57.70;;;;;;5052678;28;20139;-68
2021/04/13 13:23:47;;;;;;;10.98;2.10;;;16.10;58.00;;;;;;5052615;28;20102;-68
2021/04/13 13:26:24;;;;;;;10.52;2.25;;;16.10;57.70;;;;;;5052906;28;20033;-69
2021/04/13 13:28:49;;;;;;;10.23;2.88;;;16.10;58.50;;;;;;5051586;28;20107;-70
2021/04/13 13:31:31;;;;;;;11.13;2.58;;;16.10;58.20;;;;;;5055834;28;20486;-70
2021/04/13 13:34:04;;;;;;;9.30;2.80;;;16.20;58.40;;;;;;5055878;28;20032;-69